sensor_id;sensor_type;location;lat;lon;timestamp;pressure;altitude;pressure_sealevel;temperature;humidity
4123;BME280;2075;51.062;6.920;2023-05-31T01:42:13;-1570.63;;;-144.48;100.00
4123;BME280;2075;51.062;6.920;2023-05-31T01:45:06;199.19;;;-144.48;100.00
4123;BME280;2075;51.062;6.920;2023-05-31T01:48:00;1463.94;;;-144.48;100.00
4123;BME280;2075;51.062;6.920;2023-05-31T01:53:30;1210.94;;;-144.48;100.00
4123;BME280;2075;51.062;6.920;2023-05-31T01:56:20;-53.69;;;-144.48;100.00
4123;BME280;2075;51.062;6.920;2023-05-31T01:59:10;-53.69;;;-144.48;100.00
4123;BME280;2075;51.062;6.920;2023-05-31T02:02:00;1463.94;;;-144.48;100.00
4123;BME280;2075;51.062;6.920;2023-05-31T02:05:04;2223.00;;;-144.48;100.00
4123;BME280;2075;51.062;6.920;2023-05-31T02:07:54;1716.94;;;-144.48;100.00
4123;BME280;2075;51.062;6.920;2023-05-31T02:10:40;957.97;;;-144.48;100.00
4123;BME280;2075;51.062;6.920;2023-05-31T02:13:27;-559.44;;;-144.48;100.00
4123;BME280;2075;51.062;6.920;2023-05-31T02:16:15;-1570.63;;;-144.48;100.00
4123;BME280;2075;51.062;6.920;2023-05-31T02:19:07;-2328.84;;;-144.48;100.00
4123;BME280;2075;51.062;6.920;2023-05-31T02:21:58;-2076.13;;;-144.48;100.00
4123;BME280;2075;51.062;6.920;2023-05-31T02:24:49;-53.69;;;-144.48;100.00
4123;BME280;2075;51.062;6.920;2023-05-31T02:27:35;452.09;;;-144.48;100.00
4123;BME280;2075;51.062;6.920;2023-05-31T02:30:21;957.97;;;-144.48;100.00
4123;BME280;2075;51.062;6.920;2023-05-31T02:33:11;-812.25;;;-144.48;100.00
4123;BME280;2075;51.062;6.920;2023-05-31T02:35:59;452.09;;;-144.48;100.00
4123;BME280;2075;51.062;6.920;2023-05-31T02:38:46;-559.44;;;-144.48;100.00
4123;BME280;2075;51.062;6.920;2023-05-31T02:41:32;-2581.53;;;-144.48;100.00
4123;BME280;2075;51.062;6.920;2023-05-31T02:49:54;-2834.19;;;-144.48;100.00
4123;BME280;2075;51.062;6.920;2023-05-31T02:55:35;-3086.84;;;-144.48;100.00
4123;BME280;2075;51.062;6.920;2023-05-31T02:58:45;-3592.09;;;-144.48;100.00
4123;BME280;2075;51.062;6.920;2023-05-31T03:07:22;-3339.50;;;-144.48;100.00
4123;BME280;2075;51.062;6.920;2023-05-31T03:10:09;-3339.50;;;-144.48;100.00
4123;BME280;2075;51.062;6.920;2023-05-31T03:12:58;-3844.69;;;-144.48;100.00
4123;BME280;2075;51.062;6.920;2023-05-31T03:15:49;-3844.69;;;-144.48;100.00
4123;BME280;2075;51.062;6.920;2023-05-31T03:18:36;-3844.69;;;-144.48;100.00
4123;BME280;2075;51.062;6.920;2023-05-31T03:21:22;-3592.09;;;-144.48;100.00
4123;BME280;2075;51.062;6.920;2023-05-31T03:24:12;-2581.53;;;-144.48;100.00
4123;BME280;2075;51.062;6.920;2023-05-31T03:26:58;-2328.84;;;-144.48;100.00
4123;BME280;2075;51.062;6.920;2023-05-31T03:29:50;-1065.06;;;-144.48;100.00
4123;BME280;2075;51.062;6.920;2023-05-31T03:32:36;-306.56;;;-144.48;100.00
4123;BME280;2075;51.062;6.920;2023-05-31T03:35:22;452.09;;;-144.48;100.00
4123;BME280;2075;51.062;6.920;2023-05-31T03:38:09;1210.94;;;-144.48;100.00
4123;BME280;2075;51.062;6.920;2023-05-31T03:40:58;2223.00;;;-144.48;100.00
4123;BME280;2075;51.062;6.920;2023-05-31T03:43:44;2729.16;;;-144.48;100.00
4123;BME280;2075;51.062;6.920;2023-05-31T03:46:34;3488.53;;;-144.48;100.00
4123;BME280;2075;51.062;6.920;2023-05-31T03:49:21;3741.69;;;-144.48;100.00
4123;BME280;2075;51.062;6.920;2023-05-31T03:54:51;3741.69;;;-144.48;100.00
4123;BME280;2075;51.062;6.920;2023-05-31T03:57:40;3994.88;;;-144.48;100.00
4123;BME280;2075;51.062;6.920;2023-05-31T04:00:26;4501.28;;;-144.48;100.00
4123;BME280;2075;51.062;6.920;2023-05-31T04:03:16;4501.28;;;-144.48;100.00
4123;BME280;2075;51.062;6.920;2023-05-31T04:06:08;4501.28;;;-144.48;100.00
4123;BME280;2075;51.062;6.920;2023-05-31T04:08:43;3994.88;;;-144.48;100.00
4123;BME280;2075;51.062;6.920;2023-05-31T04:11:29;3994.88;;;-144.48;100.00
4123;BME280;2075;51.062;6.920;2023-05-31T04:14:18;2982.25;;;-144.48;100.00
4123;BME280;2075;51.062;6.920;2023-05-31T04:17:06;3741.69;;;-144.48;100.00
4123;BME280;2075;51.062;6.920;2023-05-31T04:19:59;3488.53;;;-144.48;100.00
4123;BME280;2075;51.062;6.920;2023-05-31T04:22:48;5514.38;;;-144.48;100.00
4123;BME280;2075;51.062;6.920;2023-05-31T04:25:34;9316.19;;;-144.48;100.00
4123;BME280;2075;51.062;6.920;2023-05-31T04:28:21;13630.22;;;-144.48;100.00
4123;BME280;2075;51.062;6.920;2023-05-31T04:31:11;16678.81;;;-144.48;100.00
4123;BME280;2075;51.062;6.920;2023-05-31T04:33:57;18712.78;;;-144.48;100.00
4123;BME280;2075;51.062;6.920;2023-05-31T04:36:49;24312.59;;;-144.48;100.00
4123;BME280;2075;51.062;6.920;2023-05-31T04:39:38;29156.41;;;-144.48;100.00
4123;BME280;2075;51.062;6.920;2023-05-31T04:42:24;37841.84;;;-144.48;100.00
4123;BME280;2075;51.062;6.920;2023-05-31T04:45:13;39632.81;;;-144.48;100.00
4123;BME280;2075;51.062;6.920;2023-05-31T04:48:07;49115.28;;;-144.48;100.00
4123;BME280;2075;51.062;6.920;2023-05-31T04:50:53;59654.09;;;-144.48;100.00
4123;BME280;2075;51.062;6.920;2023-05-31T04:53:39;82842.22;;;-144.48;100.00
4123;BME280;2075;51.062;6.920;2023-05-31T04:56:25;89729.88;;;-144.48;100.00
4123;BME280;2075;51.062;6.920;2023-05-31T04:59:11;93063.09;;;-144.48;92.90
4123;BME280;2075;51.062;6.920;2023-05-31T05:01:57;92417.31;;;-144.48;50.33
4123;BME280;2075;51.062;6.920;2023-05-31T05:04:45;91548.34;;;-144.48;37.74
4123;BME280;2075;51.062;6.920;2023-05-31T05:07:34;90915.03;;;-144.48;32.37
4123;BME280;2075;51.062;6.920;2023-05-31T05:10:20;90529.41;;;-144.48;30.38
4123;BME280;2075;51.062;6.920;2023-05-31T05:13:09;90306.16;;;-144.48;29.36
4123;BME280;2075;51.062;6.920;2023-05-31T05:15:57;90054.53;;;-144.48;28.00
4123;BME280;2075;51.062;6.920;2023-05-31T05:18:43;89760.31;;;-144.48;26.72
4123;BME280;2075;51.062;6.920;2023-05-31T05:21:32;89656.84;;;-144.48;26.25
4123;BME280;2075;51.062;6.920;2023-05-31T05:24:20;89153.69;;;-144.48;25.37
4123;BME280;2075;51.062;6.920;2023-05-31T05:27:12;89679.16;;;-144.48;26.18
4123;BME280;2075;51.062;6.920;2023-05-31T05:29:59;88679.03;;;-144.48;24.29
4123;BME280;2075;51.062;6.920;2023-05-31T05:32:48;88293.66;;;-144.48;23.51
4123;BME280;2075;51.062;6.920;2023-05-31T05:35:36;88954.91;;;-144.48;24.15
4123;BME280;2075;51.062;6.920;2023-05-31T05:38:26;88768.28;;;-144.48;24.17
4123;BME280;2075;51.062;6.920;2023-05-31T05:41:12;88210.50;;;-144.48;22.86
4123;BME280;2075;51.062;6.920;2023-05-31T05:44:01;87875.88;;;-144.48;22.60
4123;BME280;2075;51.062;6.920;2023-05-31T05:46:47;88427.50;;;-144.48;23.16
4123;BME280;2075;51.062;6.920;2023-05-31T05:52:19;87764.34;;;-144.48;22.21
4123;BME280;2075;51.062;6.920;2023-05-31T05:55:08;87441.94;;;-144.48;21.81
4123;BME280;2075;51.062;6.920;2023-05-31T05:57:54;87081.03;;;-144.48;21.76
4123;BME280;2075;51.062;6.920;2023-05-31T06:00:53;88159.78;;;-144.48;23.13
4123;BME280;2075;51.062;6.920;2023-05-31T06:03:43;87577.78;;;-144.48;22.15
4123;BME280;2075;51.062;6.920;2023-05-31T06:06:30;88046.22;;;-144.48;22.55
4123;BME280;2075;51.062;6.920;2023-05-31T06:09:19;88468.06;;;-144.48;23.25
4123;BME280;2075;51.062;6.920;2023-05-31T06:12:19;88530.94;;;-144.48;23.03
4123;BME280;2075;51.062;6.920;2023-05-31T06:15:09;88058.41;;;-144.48;23.07
4123;BME280;2075;51.062;6.920;2023-05-31T06:17:58;88354.50;;;-144.48;23.00
4123;BME280;2075;51.062;6.920;2023-05-31T06:20:50;87506.81;;;-144.48;21.86
4123;BME280;2075;51.062;6.920;2023-05-31T06:23:36;87888.03;;;-144.48;22.39
4123;BME280;2075;51.062;6.920;2023-05-31T06:26:21;87267.56;;;-144.48;21.63
4123;BME280;2075;51.062;6.920;2023-05-31T06:29:09;86878.28;;;-144.48;21.65
4123;BME280;2075;51.062;6.920;2023-05-31T06:32:13;86908.69;;;-144.48;21.43
4123;BME280;2075;51.062;6.920;2023-05-31T06:35:02;86320.81;;;-144.48;20.76
4123;BME280;2075;51.062;6.920;2023-05-31T06:37:48;86776.94;;;-144.48;21.40
4123;BME280;2075;51.062;6.920;2023-05-31T06:40:35;86766.78;;;-144.48;21.65
4123;BME280;2075;51.062;6.920;2023-05-31T06:43:22;86843.81;;;-144.48;21.37
4123;BME280;2075;51.062;6.920;2023-05-31T06:46:15;86699.88;;;-144.48;21.10
4123;BME280;2075;51.062;6.920;2023-05-31T06:49:27;85868.81;;;-144.48;20.34
4123;BME280;2075;51.062;6.920;2023-05-31T06:52:33;85548.63;;;-144.48;20.48
4123;BME280;2075;51.062;6.920;2023-05-31T06:55:48;86596.50;;;-144.48;21.04
4123;BME280;2075;51.062;6.920;2023-05-31T06:58:38;85876.94;;;-144.48;20.88
4123;BME280;2075;51.062;6.920;2023-05-31T07:01:26;85289.22;;;-144.48;20.39
4123;BME280;2075;51.062;6.920;2023-05-31T07:04:13;85566.84;;;-144.48;20.02
4123;BME280;2075;51.062;6.920;2023-05-31T07:07:02;85856.66;;;-144.48;20.49
4123;BME280;2075;51.062;6.920;2023-05-31T07:09:50;85268.97;;;-144.48;20.47
4123;BME280;2075;51.062;6.920;2023-05-31T07:12:36;84099.94;;;-144.48;19.94
4123;BME280;2075;51.062;6.920;2023-05-31T07:15:22;83542.94;;;-144.48;19.45
4123;BME280;2075;51.062;6.920;2023-05-31T07:18:09;84697.56;;;-144.48;19.57
4123;BME280;2075;51.062;6.920;2023-05-31T07:20:55;84963.00;;;-144.48;19.67
4123;BME280;2075;51.062;6.920;2023-05-31T07:23:41;84482.81;;;-144.48;19.46
4123;BME280;2075;51.062;6.920;2023-05-31T07:26:28;83838.63;;;-144.48;19.36
4123;BME280;2075;51.062;6.920;2023-05-31T07:29:13;84768.50;;;-144.48;19.59
4123;BME280;2075;51.062;6.920;2023-05-31T07:32:02;86341.09;;;-144.48;20.02
4123;BME280;2075;51.062;6.920;2023-05-31T07:34:49;85076.47;;;-144.48;19.90
4123;BME280;2075;51.062;6.920;2023-05-31T07:37:35;83879.16;;;-144.48;19.46
4123;BME280;2075;51.062;6.920;2023-05-31T07:40:20;85686.44;;;-144.48;20.20
4123;BME280;2075;51.062;6.920;2023-05-31T07:43:06;84328.84;;;-144.48;19.36
4123;BME280;2075;51.062;6.920;2023-05-31T07:45:52;85017.72;;;-144.48;19.39
4123;BME280;2075;51.062;6.920;2023-05-31T07:48:39;85625.63;;;-144.48;19.63
4123;BME280;2075;51.062;6.920;2023-05-31T07:51:28;85439.19;;;-144.48;19.28
4123;BME280;2075;51.062;6.920;2023-05-31T07:54:14;85682.38;;;-144.48;19.54
4123;BME280;2075;51.062;6.920;2023-05-31T07:57:01;84565.88;;;-144.48;19.27
4123;BME280;2075;51.062;6.920;2023-05-31T07:59:49;84811.03;;;-144.48;19.43
4123;BME280;2075;51.062;6.920;2023-05-31T08:02:34;84355.19;;;-144.48;19.13
4123;BME280;2075;51.062;6.920;2023-05-31T08:05:20;85368.25;;;-144.48;19.65
4123;BME280;2075;51.062;6.920;2023-05-31T08:08:07;84209.34;;;-144.48;19.10
4123;BME280;2075;51.062;6.920;2023-05-31T08:10:53;86280.28;;;-144.48;19.49
4123;BME280;2075;51.062;6.920;2023-05-31T08:13:38;86219.47;;;-144.48;19.76
4123;BME280;2075;51.062;6.920;2023-05-31T08:16:25;86588.41;;;-144.48;20.06
4123;BME280;2075;51.062;6.920;2023-05-31T08:19:11;86385.69;;;-144.48;19.73
4123;BME280;2075;51.062;6.920;2023-05-31T08:21:57;85508.09;;;-144.48;19.13
4123;BME280;2075;51.062;6.920;2023-05-31T08:24:52;85319.63;;;-144.48;19.17
4123;BME280;2075;51.062;6.920;2023-05-31T08:27:38;85451.34;;;-144.48;19.16
4123;BME280;2075;51.062;6.920;2023-05-31T08:30:26;85246.69;;;-144.48;19.15
4123;BME280;2075;51.062;6.920;2023-05-31T08:33:17;85493.91;;;-144.48;19.15
4123;BME280;2075;51.062;6.920;2023-05-31T08:36:03;85317.59;;;-144.48;18.74
4123;BME280;2075;51.062;6.920;2023-05-31T08:38:49;85394.59;;;-144.48;18.68
4123;BME280;2075;51.062;6.920;2023-05-31T08:41:43;86485.00;;;-144.48;19.02
4123;BME280;2075;51.062;6.920;2023-05-31T08:44:37;86379.59;;;-144.48;19.55
4123;BME280;2075;51.062;6.920;2023-05-31T08:47:28;86067.44;;;-144.48;19.17
4123;BME280;2075;51.062;6.920;2023-05-31T08:50:20;85731.00;;;-144.48;19.03
4123;BME280;2075;51.062;6.920;2023-05-31T08:53:07;87559.53;;;-144.48;19.80
4123;BME280;2075;51.062;6.920;2023-05-31T08:55:57;88261.19;;;-144.48;20.44
4123;BME280;2075;51.062;6.920;2023-05-31T08:58:50;87904.25;;;-144.48;20.06
4123;BME280;2075;51.062;6.920;2023-05-31T09:01:37;87713.66;;;-144.48;19.51
4123;BME280;2075;51.062;6.920;2023-05-31T09:04:23;87957.00;;;-144.48;19.18
4123;BME280;2075;51.062;6.920;2023-05-31T09:07:13;88855.50;;;-144.48;20.14
4123;BME280;2075;51.062;6.920;2023-05-31T09:09:58;89993.66;;;-144.48;22.08
4123;BME280;2075;51.062;6.920;2023-05-31T09:12:52;90967.78;;;-144.48;23.97
4123;BME280;2075;51.062;6.920;2023-05-31T09:15:43;91286.47;;;-144.48;25.47
4123;BME280;2075;51.062;6.920;2023-05-31T09:18:36;91337.22;;;-144.48;25.64
4123;BME280;2075;51.062;6.920;2023-05-31T09:21:24;91493.53;;;-144.48;25.94
4123;BME280;2075;51.062;6.920;2023-05-31T09:24:15;91588.94;;;-144.48;26.12
4123;BME280;2075;51.062;6.920;2023-05-31T09:27:03;91637.66;;;-144.48;26.81
4123;BME280;2075;51.062;6.920;2023-05-31T09:29:53;91631.56;;;-144.48;27.05
4123;BME280;2075;51.062;6.920;2023-05-31T09:32:41;91621.44;;;-144.48;27.71
4123;BME280;2075;51.062;6.920;2023-05-31T09:35:27;91755.41;;;-144.48;27.35
4123;BME280;2075;51.062;6.920;2023-05-31T09:38:15;91670.16;;;-144.48;27.90
4123;BME280;2075;51.062;6.920;2023-05-31T09:41:15;91763.53;;;-144.48;27.79
4123;BME280;2075;51.062;6.920;2023-05-31T09:44:07;91777.75;;;-144.48;27.63
4123;BME280;2075;51.062;6.920;2023-05-31T09:46:54;91873.16;;;-144.48;27.72
4123;BME280;2075;51.062;6.920;2023-05-31T09:49:44;91980.78;;;-144.48;27.91
4123;BME280;2075;51.062;6.920;2023-05-31T09:52:30;91844.75;;;-144.48;28.08
4123;BME280;2075;51.062;6.920;2023-05-31T09:55:17;91885.34;;;-144.48;27.67
4123;BME280;2075;51.062;6.920;2023-05-31T09:58:03;91861.00;;;-144.48;28.34
4123;BME280;2075;51.062;6.920;2023-05-31T10:00:49;91822.41;;;-144.48;28.05
4123;BME280;2075;51.062;6.920;2023-05-31T10:03:35;91881.28;;;-144.48;28.16
4123;BME280;2075;51.062;6.920;2023-05-31T10:06:24;91515.88;;;-144.48;27.84
4123;BME280;2075;51.062;6.920;2023-05-31T10:09:10;91901.59;;;-144.48;27.82
4123;BME280;2075;51.062;6.920;2023-05-31T10:11:58;91938.13;;;-144.48;28.37
4123;BME280;2075;51.062;6.920;2023-05-31T10:14:49;91901.59;;;-144.48;28.59
4123;BME280;2075;51.062;6.920;2023-05-31T10:17:42;91948.28;;;-144.48;28.31
4123;BME280;2075;51.062;6.920;2023-05-31T10:20:37;91893.47;;;-144.48;28.44
4123;BME280;2075;51.062;6.920;2023-05-31T10:23:28;91907.69;;;-144.48;28.36
4123;BME280;2075;51.062;6.920;2023-05-31T10:26:16;91856.94;;;-144.48;28.54
4123;BME280;2075;51.062;6.920;2023-05-31T10:29:14;91852.88;;;-144.48;28.74
4123;BME280;2075;51.062;6.920;2023-05-31T10:32:06;91820.38;;;-144.48;28.76
4123;BME280;2075;51.062;6.920;2023-05-31T10:34:54;91771.66;;;-144.48;28.79
4123;BME280;2075;51.062;6.920;2023-05-31T10:37:41;91753.38;;;-144.48;29.25
4123;BME280;2075;51.062;6.920;2023-05-31T10:40:37;91877.22;;;-144.48;28.49
4123;BME280;2075;51.062;6.920;2023-05-31T10:43:30;91844.75;;;-144.48;28.64
4123;BME280;2075;51.062;6.920;2023-05-31T10:46:20;91840.69;;;-144.48;29.35
4123;BME280;2075;51.062;6.920;2023-05-31T10:49:08;91950.31;;;-144.48;28.91
4123;BME280;2075;51.062;6.920;2023-05-31T10:52:03;91942.19;;;-144.48;28.95
4123;BME280;2075;51.062;6.920;2023-05-31T10:54:50;91940.16;;;-144.48;28.95
4123;BME280;2075;51.062;6.920;2023-05-31T10:57:37;91899.56;;;-144.48;28.72
4123;BME280;2075;51.062;6.920;2023-05-31T11:00:23;91865.03;;;-144.48;28.67
4123;BME280;2075;51.062;6.920;2023-05-31T11:03:10;91905.66;;;-144.48;28.92
4123;BME280;2075;51.062;6.920;2023-05-31T11:05:57;91871.13;;;-144.48;29.20
4123;BME280;2075;51.062;6.920;2023-05-31T11:08:57;91848.81;;;-144.48;28.88
4123;BME280;2075;51.062;6.920;2023-05-31T11:11:45;91822.41;;;-144.48;28.87
4123;BME280;2075;51.062;6.920;2023-05-31T11:14:34;91808.19;;;-144.48;28.51
4123;BME280;2075;51.062;6.920;2023-05-31T11:17:23;91865.03;;;-144.48;28.82
4123;BME280;2075;51.062;6.920;2023-05-31T11:20:16;91794.00;;;-144.48;28.88
4123;BME280;2075;51.062;6.920;2023-05-31T11:23:25;91791.97;;;-144.48;28.84
4123;BME280;2075;51.062;6.920;2023-05-31T11:26:16;91820.38;;;-144.48;28.84
4123;BME280;2075;51.062;6.920;2023-05-31T11:29:04;91824.44;;;-144.48;29.19
4123;BME280;2075;51.062;6.920;2023-05-31T11:31:59;91948.28;;;-144.48;29.28
4123;BME280;2075;51.062;6.920;2023-05-31T11:34:50;91662.03;;;-144.48;29.54
4123;BME280;2075;51.062;6.920;2023-05-31T11:37:38;91999.03;;;-144.48;31.33
4123;BME280;2075;51.062;6.920;2023-05-31T11:40:25;91787.91;;;-144.48;31.64
4123;BME280;2075;51.062;6.920;2023-05-31T11:43:13;91885.34;;;-144.48;31.58
4123;BME280;2075;51.062;6.920;2023-05-31T11:46:03;91881.28;;;-144.48;31.80
4123;BME280;2075;51.062;6.920;2023-05-31T11:48:51;91869.09;;;-144.48;31.66
4123;BME280;2075;51.062;6.920;2023-05-31T11:51:42;91873.16;;;-144.48;32.13
4123;BME280;2075;51.062;6.920;2023-05-31T11:54:29;91753.38;;;-144.48;32.03
4123;BME280;2075;51.062;6.920;2023-05-31T11:57:17;91751.34;;;-144.48;31.74
4123;BME280;2075;51.062;6.920;2023-05-31T12:00:04;91856.94;;;-144.48;32.60
4123;BME280;2075;51.062;6.920;2023-05-31T12:02:55;91830.53;;;-144.48;31.89
4123;BME280;2075;51.062;6.920;2023-05-31T12:05:44;91686.38;;;-144.48;31.83
4123;BME280;2075;51.062;6.920;2023-05-31T12:08:35;91966.56;;;-144.48;31.35
4123;BME280;2075;51.062;6.920;2023-05-31T12:11:21;91808.19;;;-144.48;30.92
4123;BME280;2075;51.062;6.920;2023-05-31T12:14:06;91873.16;;;-144.48;31.57
4123;BME280;2075;51.062;6.920;2023-05-31T12:16:52;91580.81;;;-144.48;32.42
4123;BME280;2075;51.062;6.920;2023-05-31T12:19:38;91836.63;;;-144.48;32.38
4123;BME280;2075;51.062;6.920;2023-05-31T12:22:25;91804.16;;;-144.48;32.01
4123;BME280;2075;51.062;6.920;2023-05-31T12:25:11;91828.50;;;-144.48;32.65
4123;BME280;2075;51.062;6.920;2023-05-31T12:27:56;91861.00;;;-144.48;32.46
4123;BME280;2075;51.062;6.920;2023-05-31T12:30:46;91901.59;;;-144.48;33.01
4123;BME280;2075;51.062;6.920;2023-05-31T12:33:34;91779.78;;;-144.48;32.32
4123;BME280;2075;51.062;6.920;2023-05-31T12:36:19;91840.69;;;-144.48;32.09
4123;BME280;2075;51.062;6.920;2023-05-31T12:39:09;91863.03;;;-144.48;32.76
4123;BME280;2075;51.062;6.920;2023-05-31T12:41:57;91816.31;;;-144.48;32.78
4123;BME280;2075;51.062;6.920;2023-05-31T12:44:44;91816.31;;;-144.48;32.49
4123;BME280;2075;51.062;6.920;2023-05-31T12:47:30;91861.00;;;-144.48;32.45
4123;BME280;2075;51.062;6.920;2023-05-31T12:50:15;91913.78;;;-144.48;32.68
4123;BME280;2075;51.062;6.920;2023-05-31T12:53:10;91861.00;;;-144.48;33.31
4123;BME280;2075;51.062;6.920;2023-05-31T12:55:57;91848.81;;;-144.48;32.89
4123;BME280;2075;51.062;6.920;2023-05-31T12:58:43;91840.69;;;-144.48;32.64
4123;BME280;2075;51.062;6.920;2023-05-31T13:01:29;91798.06;;;-144.48;32.94
4123;BME280;2075;51.062;6.920;2023-05-31T13:04:20;91800.09;;;-144.48;32.98
4123;BME280;2075;51.062;6.920;2023-05-31T13:07:10;91942.19;;;-144.48;32.91
4123;BME280;2075;51.062;6.920;2023-05-31T13:09:59;91739.19;;;-144.48;33.00
4123;BME280;2075;51.062;6.920;2023-05-31T13:12:48;91877.22;;;-144.48;32.96
4123;BME280;2075;51.062;6.920;2023-05-31T13:15:39;91534.13;;;-144.48;32.63
4123;BME280;2075;51.062;6.920;2023-05-31T13:21:09;91800.09;;;-144.48;32.66
4123;BME280;2075;51.062;6.920;2023-05-31T13:23:58;91767.59;;;-144.48;32.73
4123;BME280;2075;51.062;6.920;2023-05-31T13:26:47;91832.56;;;-144.48;32.32
4123;BME280;2075;51.062;6.920;2023-05-31T13:29:35;91844.75;;;-144.48;32.68
4123;BME280;2075;51.062;6.920;2023-05-31T13:32:21;91349.41;;;-144.48;32.44
4123;BME280;2075;51.062;6.920;2023-05-31T13:35:09;91923.94;;;-144.48;32.37
4123;BME280;2075;51.062;6.920;2023-05-31T13:37:56;91832.56;;;-144.48;32.32
4123;BME280;2075;51.062;6.920;2023-05-31T13:40:42;91836.63;;;-144.48;33.01
4123;BME280;2075;51.062;6.920;2023-05-31T13:43:27;91820.38;;;-144.48;32.62
4123;BME280;2075;51.062;6.920;2023-05-31T13:46:15;91865.03;;;-144.48;32.86
4123;BME280;2075;51.062;6.920;2023-05-31T13:49:02;91812.25;;;-144.48;32.83
4123;BME280;2075;51.062;6.920;2023-05-31T13:51:47;91842.72;;;-144.48;32.53
4123;BME280;2075;51.062;6.920;2023-05-31T13:54:34;91749.31;;;-144.48;31.99
4123;BME280;2075;51.062;6.920;2023-05-31T13:57:24;91804.16;;;-144.48;32.00
4123;BME280;2075;51.062;6.920;2023-05-31T14:00:10;91783.84;;;-144.48;31.99
4123;BME280;2075;51.062;6.920;2023-05-31T14:03:03;91722.94;;;-144.48;31.87
4123;BME280;2075;51.062;6.920;2023-05-31T14:05:55;91601.13;;;-144.48;32.08
4123;BME280;2075;51.062;6.920;2023-05-31T14:08:45;91824.44;;;-144.48;32.04
4123;BME280;2075;51.062;6.920;2023-05-31T14:11:32;91771.66;;;-144.48;32.15
4123;BME280;2075;51.062;6.920;2023-05-31T14:14:21;91775.72;;;-144.48;31.97
4123;BME280;2075;51.062;6.920;2023-05-31T14:17:13;91834.59;;;-144.48;31.92
4123;BME280;2075;51.062;6.920;2023-05-31T14:20:07;91718.88;;;-144.48;31.91
4123;BME280;2075;51.062;6.920;2023-05-31T14:22:56;91625.50;;;-144.48;31.52
4123;BME280;2075;51.062;6.920;2023-05-31T14:25:42;91694.50;;;-144.48;32.03
4123;BME280;2075;51.062;6.920;2023-05-31T14:28:30;91822.41;;;-144.48;32.10
4123;BME280;2075;51.062;6.920;2023-05-31T14:31:22;91787.91;;;-144.48;32.07
4123;BME280;2075;51.062;6.920;2023-05-31T14:34:09;91820.38;;;-144.48;32.24
4123;BME280;2075;51.062;6.920;2023-05-31T14:37:00;91844.75;;;-144.48;32.10
4123;BME280;2075;51.062;6.920;2023-05-31T14:39:46;91773.69;;;-144.48;31.81
4123;BME280;2075;51.062;6.920;2023-05-31T14:42:31;91743.22;;;-144.48;32.02
4123;BME280;2075;51.062;6.920;2023-05-31T14:45:25;91753.38;;;-144.48;32.08
4123;BME280;2075;51.062;6.920;2023-05-31T14:48:22;91745.28;;;-144.48;32.10
4123;BME280;2075;51.062;6.920;2023-05-31T14:51:08;91722.94;;;-144.48;31.52
4123;BME280;2075;51.062;6.920;2023-05-31T14:54:03;91706.69;;;-144.48;31.55
4123;BME280;2075;51.062;6.920;2023-05-31T14:56:52;91678.28;;;-144.48;31.90
4123;BME280;2075;51.062;6.920;2023-05-31T14:59:38;91670.16;;;-144.48;31.66
4123;BME280;2075;51.062;6.920;2023-05-31T15:02:25;91798.06;;;-144.48;32.19
4123;BME280;2075;51.062;6.920;2023-05-31T15:05:11;91806.16;;;-144.48;31.77
4123;BME280;2075;51.062;6.920;2023-05-31T15:08:00;91824.44;;;-144.48;32.14
4123;BME280;2075;51.062;6.920;2023-05-31T15:10:49;91767.59;;;-144.48;32.42
4123;BME280;2075;51.062;6.920;2023-05-31T15:13:35;91674.22;;;-144.48;32.02
4123;BME280;2075;51.062;6.920;2023-05-31T15:16:22;91840.69;;;-144.48;32.24
4123;BME280;2075;51.062;6.920;2023-05-31T15:19:13;91824.44;;;-144.48;32.47
4123;BME280;2075;51.062;6.920;2023-05-31T15:22:00;91800.09;;;-144.48;32.13
4123;BME280;2075;51.062;6.920;2023-05-31T15:24:49;91722.94;;;-144.48;32.10
4123;BME280;2075;51.062;6.920;2023-05-31T15:27:35;91625.50;;;-144.48;31.74
4123;BME280;2075;51.062;6.920;2023-05-31T15:30:21;91727.00;;;-144.48;31.65
4123;BME280;2075;51.062;6.920;2023-05-31T15:33:07;91783.84;;;-144.48;31.87
4123;BME280;2075;51.062;6.920;2023-05-31T15:35:58;91741.22;;;-144.48;31.73
4123;BME280;2075;51.062;6.920;2023-05-31T15:38:59;91749.31;;;-144.48;31.53
4123;BME280;2075;51.062;6.920;2023-05-31T15:41:45;91751.34;;;-144.48;31.71
4123;BME280;2075;51.062;6.920;2023-05-31T15:44:38;91633.59;;;-144.48;31.52
4123;BME280;2075;51.062;6.920;2023-05-31T15:47:24;91607.22;;;-144.48;31.41
4123;BME280;2075;51.062;6.920;2023-05-31T15:50:10;91692.47;;;-144.48;31.15
4123;BME280;2075;51.062;6.920;2023-05-31T15:52:55;91653.91;;;-144.48;31.22
4123;BME280;2075;51.062;6.920;2023-05-31T15:55:43;91763.53;;;-144.48;31.54
4123;BME280;2075;51.062;6.920;2023-05-31T15:58:30;91733.09;;;-144.48;31.60
4123;BME280;2075;51.062;6.920;2023-05-31T16:01:17;91694.50;;;-144.48;31.68
4123;BME280;2075;51.062;6.920;2023-05-31T16:04:03;91783.84;;;-144.48;31.92
4123;BME280;2075;51.062;6.920;2023-05-31T16:06:49;91802.13;;;-144.48;32.39
4123;BME280;2075;51.062;6.920;2023-05-31T16:09:35;91844.75;;;-144.48;32.45
4123;BME280;2075;51.062;6.920;2023-05-31T16:12:20;91873.16;;;-144.48;32.34
4123;BME280;2075;51.062;6.920;2023-05-31T16:15:07;91800.09;;;-144.48;32.49
4123;BME280;2075;51.062;6.920;2023-05-31T16:17:55;91848.81;;;-144.48;32.76
4123;BME280;2075;51.062;6.920;2023-05-31T16:20:41;91889.41;;;-144.48;32.57
4123;BME280;2075;51.062;6.920;2023-05-31T16:23:27;91881.28;;;-144.48;32.72
4123;BME280;2075;51.062;6.920;2023-05-31T16:26:13;91885.34;;;-144.48;32.53
4123;BME280;2075;51.062;6.920;2023-05-31T16:28:59;91938.13;;;-144.48;32.38
4123;BME280;2075;51.062;6.920;2023-05-31T16:31:44;91887.38;;;-144.48;32.35
4123;BME280;2075;51.062;6.920;2023-05-31T16:34:31;91909.72;;;-144.48;32.48
4123;BME280;2075;51.062;6.920;2023-05-31T16:37:17;91932.03;;;-144.48;32.71
4123;BME280;2075;51.062;6.920;2023-05-31T16:40:06;91921.91;;;-144.48;32.89
4123;BME280;2075;51.062;6.920;2023-05-31T16:42:51;91854.91;;;-144.48;32.73
4123;BME280;2075;51.062;6.920;2023-05-31T16:45:37;91875.19;;;-144.48;32.48
4123;BME280;2075;51.062;6.920;2023-05-31T16:48:22;91913.78;;;-144.48;32.79
4123;BME280;2075;51.062;6.920;2023-05-31T16:51:09;91838.66;;;-144.48;32.79
4123;BME280;2075;51.062;6.920;2023-05-31T16:53:55;91950.31;;;-144.48;33.06
4123;BME280;2075;51.062;6.920;2023-05-31T16:56:40;91925.97;;;-144.48;33.16
4123;BME280;2075;51.062;6.920;2023-05-31T16:59:26;91954.38;;;-144.48;32.60